createdAt,value
2018-11-28T00:00:30.087Z,15.40
2018-11-28T00:02:59.485Z,16.37
2018-11-28T00:05:27.766Z,15.27
2018-11-28T00:07:56.030Z,16.23
2018-11-28T00:10:24.352Z,16.10
2018-11-28T00:12:52.686Z,16.03
2018-11-28T00:15:21.002Z,18.70
2018-11-28T00:17:49.293Z,18.07
2018-11-28T00:20:19.420Z,17.93
2018-11-28T00:22:47.902Z,18.10
2018-11-28T00:25:16.806Z,17.30
2018-11-28T00:27:45.092Z,17.87
2018-11-28T00:30:19.863Z,15.27
2018-11-28T00:32:48.139Z,16.37
2018-11-28T00:35:19.066Z,16.83
2018-11-28T00:37:47.371Z,18.63
2018-11-28T00:40:16.719Z,15.83
2018-11-28T00:42:44.992Z,17.03
2018-11-28T00:45:16.228Z,16.90
2018-11-28T00:47:44.546Z,20.07
2018-11-28T00:50:13.875Z,16.20
2018-11-28T00:52:42.200Z,16.30
2018-11-28T00:55:11.793Z,17.73
2018-11-28T00:57:40.378Z,17.30
2018-11-28T01:00:13.280Z,19.07
2018-11-28T01:02:41.813Z,17.17
2018-11-28T01:05:10.947Z,18.00
2018-11-28T01:07:39.447Z,18.13
2018-11-28T01:10:17.152Z,18.53
2018-11-28T01:12:45.804Z,20.13
2018-11-28T01:15:15.016Z,18.10
2018-11-28T01:17:43.409Z,18.17
2018-11-28T01:20:13.392Z,16.37
2018-11-28T01:22:41.688Z,18.83
2018-11-28T01:25:11.855Z,18.93
2018-11-28T01:27:40.180Z,17.50
2018-11-28T01:30:12.041Z,19.20
2018-11-28T01:32:40.543Z,17.33
2018-11-28T01:35:11.624Z,20.37
2018-11-28T01:37:40.048Z,16.93
2018-11-28T01:40:16.551Z,18.27
2018-11-28T01:42:44.806Z,19.30
2018-11-28T01:45:13.944Z,15.97
2018-11-28T01:47:42.414Z,18.30
2018-11-28T01:50:11.727Z,18.07
2018-11-28T01:52:40.006Z,18.20
2018-11-28T01:55:10.457Z,20.20
2018-11-28T01:57:38.801Z,17.43
2018-11-28T02:00:18.999Z,17.80
2018-11-28T02:02:48.383Z,18.40
2018-11-28T02:05:16.991Z,17.67
2018-11-28T02:07:45.460Z,19.23
2018-11-28T02:10:15.303Z,19.70
2018-11-28T02:12:43.648Z,20.97
2018-11-28T02:15:18.914Z,18.03
2018-11-28T02:17:47.240Z,16.40
2018-11-28T02:20:17.156Z,19.70
2018-11-28T02:22:45.760Z,15.73
2018-11-28T02:25:14.920Z,18.70
2018-11-28T02:27:43.259Z,19.43
2018-11-28T02:30:13.656Z,19.20
2018-11-28T02:32:41.919Z,18.63
2018-11-28T02:35:12.396Z,21.60
2018-11-28T02:37:40.700Z,17.77
2018-11-28T02:40:10.057Z,18.40
2018-11-28T02:42:38.557Z,18.20
2018-11-28T02:45:14.216Z,16.90
2018-11-28T02:47:42.468Z,17.93
2018-11-28T02:50:10.731Z,17.57
2018-11-28T02:52:39.246Z,19.50
2018-11-28T02:55:10.497Z,16.87
2018-11-28T02:57:39.097Z,20.30
2018-11-28T03:00:10.051Z,20.00
2018-11-28T03:02:38.308Z,17.27
2018-11-28T03:05:08.031Z,18.53
2018-11-28T03:07:36.545Z,20.60
2018-11-28T03:10:08.203Z,18.90
2018-11-28T03:12:36.515Z,18.50
2018-11-28T03:15:05.489Z,21.23
2018-11-28T03:17:34.096Z,19.40
2018-11-28T03:20:02.720Z,19.57
2018-11-28T03:22:31.018Z,18.13
2018-11-28T03:24:59.323Z,18.70
2018-11-28T03:27:27.589Z,18.17
2018-11-28T03:29:55.857Z,19.57
2018-11-28T03:32:24.449Z,18.50
2018-11-28T03:34:52.778Z,19.97
2018-11-28T03:37:21.063Z,17.93
2018-11-28T03:39:49.327Z,17.80
2018-11-28T03:42:17.616Z,16.50
2018-11-28T03:44:45.883Z,17.80
2018-11-28T03:47:14.127Z,17.60
2018-11-28T03:49:42.431Z,18.47
2018-11-28T03:52:10.715Z,17.73
2018-11-28T03:54:39.415Z,18.33
2018-11-28T03:57:08.125Z,17.23
2018-11-28T03:59:36.872Z,18.57
2018-11-28T04:02:05.769Z,19.30
2018-11-28T04:04:34.560Z,17.00
2018-11-28T04:07:03.347Z,17.57
2018-11-28T04:09:31.616Z,18.37
2018-11-28T04:11:59.909Z,20.10
2018-11-28T04:14:28.532Z,19.87
2018-11-28T04:16:56.793Z,17.43
2018-11-28T04:19:25.106Z,17.80
2018-11-28T04:21:53.357Z,18.40
2018-11-28T04:24:21.608Z,18.60
2018-11-28T04:26:50.240Z,17.70
2018-11-28T04:29:18.525Z,17.00
2018-11-28T04:31:46.796Z,18.67
2018-11-28T04:34:15.548Z,19.50
2018-11-28T04:36:43.816Z,20.33
2018-11-28T04:39:12.135Z,20.40
2018-11-28T04:41:40.433Z,19.50
2018-11-28T04:44:09.077Z,18.00
2018-11-28T04:46:37.360Z,19.37
2018-11-28T04:49:05.774Z,21.73
2018-11-28T04:51:34.112Z,18.00
2018-11-28T04:54:02.405Z,18.00
2018-11-28T04:56:30.709Z,19.32
2018-11-28T04:58:59.125Z,20.70
2018-11-28T05:01:27.418Z,21.27
2018-11-28T05:03:55.713Z,19.67
2018-11-28T05:06:35.878Z,18.73
2018-11-28T05:09:04.586Z,19.57
2018-11-28T05:11:32.857Z,22.20
2018-11-28T05:14:01.243Z,23.10
2018-11-28T05:16:29.564Z,20.67
2018-11-28T05:18:57.896Z,18.70
2018-11-28T05:21:26.165Z,20.17
2018-11-28T05:23:54.760Z,18.17
2018-11-28T05:26:23.099Z,20.17
2018-11-28T05:28:51.356Z,18.77
2018-11-28T05:31:19.684Z,19.20
2018-11-28T05:33:48.198Z,18.20
2018-11-28T05:36:17.075Z,19.00
2018-11-28T05:38:45.390Z,22.43
2018-11-28T05:41:13.636Z,19.23
2018-11-28T05:43:43.616Z,19.33
2018-11-28T05:46:11.900Z,20.40
2018-11-28T05:48:40.157Z,21.10
2018-11-28T05:51:08.435Z,20.77
2018-11-28T05:53:37.195Z,20.70
2018-11-28T05:56:05.920Z,19.60
2018-11-28T05:58:38.292Z,21.07
2018-11-28T06:01:06.755Z,20.10
2018-11-28T06:03:35.039Z,19.47
2018-11-28T06:06:04.592Z,20.33
2018-11-28T06:08:32.892Z,20.83
2018-11-28T06:11:01.156Z,18.90
2018-11-28T06:13:31.225Z,20.40
2018-11-28T06:16:00.003Z,21.90
2018-11-28T06:18:28.310Z,17.70
2018-11-28T06:20:56.800Z,20.97
2018-11-28T06:23:25.425Z,20.60
2018-11-28T06:25:53.695Z,22.63
2018-11-28T06:28:22.000Z,19.87
2018-11-28T06:30:50.286Z,19.43
2018-11-28T06:33:18.563Z,19.63
2018-11-28T06:35:46.987Z,19.77
2018-11-28T06:38:15.506Z,21.50
2018-11-28T06:40:43.803Z,20.37
2018-11-28T06:43:12.376Z,20.60
2018-11-28T06:45:40.672Z,20.60
2018-11-28T06:48:08.958Z,19.90
2018-11-28T06:50:38.096Z,20.60
2018-11-28T06:53:06.381Z,21.03
2018-11-28T06:55:35.379Z,20.20
2018-11-28T06:58:04.889Z,22.50
2018-11-28T07:00:33.175Z,20.50
2018-11-28T07:03:01.489Z,21.80
2018-11-28T07:05:29.984Z,17.90
2018-11-28T07:07:58.340Z,21.87
2018-11-28T07:10:26.640Z,20.03
2018-11-28T07:12:55.005Z,21.67
2018-11-28T07:15:24.269Z,17.37
2018-11-28T07:17:52.623Z,20.97
2018-11-28T07:20:21.927Z,20.83
2018-11-28T07:22:50.277Z,22.33
2018-11-28T07:25:19.039Z,18.83
2018-11-28T07:27:48.064Z,21.27
2018-11-28T07:30:19.257Z,20.73
2018-11-28T07:32:48.867Z,22.70
2018-11-28T07:35:17.150Z,21.20
2018-11-28T07:37:45.852Z,22.87
2018-11-28T07:40:15.479Z,20.67
2018-11-28T07:42:46.481Z,24.70
2018-11-28T07:45:14.817Z,18.43
2018-11-28T07:47:43.114Z,20.83
2018-11-28T07:50:11.745Z,21.23
2018-11-28T07:52:40.755Z,22.03
2018-11-28T07:55:10.917Z,19.50
2018-11-28T07:57:40.002Z,21.00
2018-11-28T08:00:11.944Z,17.80
2018-11-28T08:02:40.265Z,22.73
2018-11-28T08:05:11.471Z,22.17
2018-11-28T08:07:39.799Z,21.87
2018-11-28T08:10:09.715Z,23.07
2018-11-28T08:12:38.097Z,20.72
2018-11-28T08:15:22.283Z,20.60
2018-11-28T08:17:52.668Z,21.27
2018-11-28T08:20:21.654Z,22.57
2018-11-28T08:22:49.921Z,19.93
2018-11-28T08:25:18.456Z,20.80
2018-11-28T08:27:47.714Z,19.20
2018-11-28T08:30:21.771Z,21.13
2018-11-28T08:35:25.330Z,21.67
2018-11-28T08:37:53.632Z,21.03
2018-11-28T08:40:25.010Z,19.60
2018-11-28T08:42:55.514Z,22.53
2018-11-28T08:45:26.124Z,19.70
2018-11-28T08:47:55.974Z,19.00
2018-11-28T08:50:27.026Z,20.07
2018-11-28T08:52:55.308Z,20.20
2018-11-28T08:55:23.640Z,28.27
2018-11-28T08:57:52.017Z,20.97
2018-11-28T09:00:21.876Z,20.90
2018-11-28T09:02:53.807Z,22.17
2018-11-28T09:05:22.144Z,18.67
2018-11-28T09:07:51.260Z,21.50
2018-11-28T09:10:20.092Z,18.20
2018-11-28T09:12:49.933Z,19.87
2018-11-28T09:15:28.189Z,23.40
2018-11-28T09:18:00.208Z,20.73
2018-11-28T09:20:28.874Z,19.47
2018-11-28T09:22:58.376Z,21.00
2018-11-28T09:28:00.623Z,20.97
2018-11-28T09:30:29.031Z,21.60
2018-11-28T09:32:57.368Z,18.80
2018-11-28T09:35:26.268Z,19.33
2018-11-28T09:37:54.833Z,18.93
2018-11-28T09:40:25.070Z,18.37
2018-11-28T09:42:55.403Z,18.67
2018-11-28T09:45:23.988Z,19.10
2018-11-28T09:47:52.476Z,23.20
2018-11-28T09:50:24.429Z,20.50
2018-11-28T09:52:52.718Z,20.43
2018-11-28T09:55:24.314Z,17.90
2018-11-28T09:57:52.622Z,19.90
2018-11-28T10:00:23.561Z,20.87
2018-11-28T10:02:53.808Z,19.87
2018-11-28T10:05:24.928Z,22.47
2018-11-28T10:07:54.196Z,18.50
2018-11-28T10:10:22.812Z,19.60
2018-11-28T10:12:51.195Z,19.77
2018-11-28T10:15:21.631Z,18.27
2018-11-28T10:17:50.199Z,19.87
2018-11-28T10:20:18.984Z,19.30
2018-11-28T10:22:47.935Z,20.70
2018-11-28T10:25:18.055Z,20.10
2018-11-28T10:27:49.041Z,21.03
2018-11-28T10:30:26.123Z,17.63
2018-11-28T10:32:54.692Z,19.63
2018-11-28T10:35:23.641Z,17.83
2018-11-28T10:37:51.936Z,20.70
2018-11-28T10:40:21.076Z,18.10
2018-11-28T10:42:51.796Z,20.60
2018-11-28T10:45:21.007Z,17.70
2018-11-28T10:47:49.616Z,19.97
2018-11-28T10:50:19.515Z,18.10
2018-11-28T10:52:48.020Z,19.03
2018-11-28T10:55:17.255Z,18.10
2018-11-28T10:57:46.063Z,16.10
2018-11-28T11:00:26.541Z,17.17
2018-11-28T11:03:00.247Z,17.30
2018-11-28T11:05:34.039Z,18.17
2018-11-28T11:08:07.748Z,16.70
2018-11-28T11:10:41.474Z,16.73
2018-11-28T11:13:16.798Z,15.57
2018-11-28T11:15:49.307Z,18.40
2018-11-28T11:18:17.600Z,20.20
2018-11-28T11:20:45.921Z,16.10
2018-11-28T11:23:14.249Z,17.60
2018-11-28T11:25:42.583Z,17.20
2018-11-28T11:28:11.088Z,16.80
2018-11-28T11:30:39.709Z,15.77
2018-11-28T11:33:08.019Z,16.50
2018-11-28T11:35:36.904Z,16.27
2018-11-28T11:38:05.528Z,16.10
2018-11-28T11:40:34.124Z,17.53
2018-11-28T11:43:04.187Z,18.77
2018-11-28T11:45:32.493Z,16.80
2018-11-28T11:48:01.101Z,17.30
2018-11-28T11:50:31.438Z,17.40
2018-11-28T11:52:59.718Z,15.20
2018-11-28T11:55:27.994Z,16.73
2018-11-28T11:57:56.271Z,17.13
2018-11-28T12:00:25.471Z,16.50
2018-11-28T12:03:16.633Z,18.77
2018-11-28T12:05:48.343Z,16.80
2018-11-28T12:08:16.672Z,16.40
2018-11-28T12:10:45.280Z,17.23
2018-11-28T12:13:13.820Z,18.03
2018-11-28T12:15:42.168Z,16.10
2018-11-28T12:18:10.496Z,15.17
2018-11-28T12:20:42.830Z,15.57
2018-11-28T12:23:11.518Z,16.50
2018-11-28T12:25:40.147Z,16.43
2018-11-28T12:28:09.172Z,16.00
2018-11-28T12:30:37.447Z,19.00
2018-11-28T12:33:06.396Z,17.23
2018-11-28T12:35:34.757Z,17.20
2018-11-28T12:38:03.337Z,18.17
2018-11-28T12:40:32.748Z,15.77
2018-11-28T12:43:02.481Z,17.07
2018-11-28T12:45:30.761Z,15.80
2018-11-28T12:47:59.136Z,16.07
2018-11-28T12:50:28.468Z,15.10
2018-11-28T12:52:57.935Z,15.30
2018-11-28T12:55:26.257Z,15.50
2018-11-28T12:57:55.552Z,17.93
2018-11-28T13:00:25.932Z,15.30
2018-11-28T13:02:54.564Z,14.90
2018-11-28T13:05:26.472Z,14.03
2018-11-28T13:07:54.853Z,15.10
2018-11-28T13:10:27.386Z,14.20
2018-11-28T13:12:55.961Z,15.30
2018-11-28T13:15:25.251Z,14.00
2018-11-28T13:17:53.587Z,17.30
2018-11-28T13:20:22.452Z,16.00
2018-11-28T13:22:51.922Z,15.57
2018-11-28T13:25:24.389Z,16.40
2018-11-28T13:27:52.672Z,13.07
2018-11-28T13:30:21.711Z,15.03
2018-11-28T13:32:50.598Z,13.77
2018-11-28T13:35:24.147Z,16.10
2018-11-28T13:37:59.187Z,15.40
2018-11-28T13:40:27.908Z,14.93
2018-11-28T13:42:56.269Z,13.43
2018-11-28T13:45:27.016Z,15.47
2018-11-28T13:47:55.952Z,12.33
2018-11-28T13:50:24.636Z,13.07
2018-11-28T13:52:53.898Z,13.40
2018-11-28T13:55:38.845Z,13.70
2018-11-28T13:58:02.571Z,14.37
2018-11-28T14:00:31.105Z,14.97
2018-11-28T14:02:59.483Z,14.53
2018-11-28T14:05:28.099Z,14.20
2018-11-28T14:07:56.455Z,16.70
2018-11-28T14:10:24.741Z,11.93
2018-11-28T14:12:53.994Z,12.50
2018-11-28T14:15:22.900Z,14.23
2018-11-28T14:17:54.483Z,12.87
2018-11-28T14:20:22.821Z,12.77
2018-11-28T14:22:51.104Z,15.00
2018-11-28T14:25:19.408Z,13.73
2018-11-28T14:27:47.862Z,15.20
2018-11-28T14:30:17.091Z,14.27
2018-11-28T14:32:46.524Z,16.00
2018-11-28T14:35:14.977Z,13.43
2018-11-28T14:37:43.663Z,14.33
2018-11-28T14:40:27.322Z,15.30
2018-11-28T14:42:57.660Z,13.63
2018-11-28T14:45:26.348Z,15.17
2018-11-28T14:47:54.806Z,13.73
2018-11-28T14:50:25.159Z,14.93
2018-11-28T14:52:54.401Z,16.83
2018-11-28T14:55:23.705Z,15.77
2018-11-28T14:57:51.992Z,14.97
2018-11-28T15:00:23.358Z,16.57
2018-11-28T15:02:53.723Z,15.30
2018-11-28T15:05:36.796Z,16.03
2018-11-28T15:08:08.197Z,18.17
2018-11-28T15:10:47.402Z,17.03
2018-11-28T15:13:15.701Z,15.67
2018-11-28T15:15:43.998Z,14.33
2018-11-28T15:18:12.333Z,15.00
2018-11-28T15:20:40.625Z,16.40
2018-11-28T15:23:08.944Z,16.23
2018-11-28T15:25:37.271Z,16.60
2018-11-28T15:28:05.645Z,16.67
2018-11-28T15:30:33.958Z,15.10
2018-11-28T15:33:02.522Z,15.90
2018-11-28T15:35:30.833Z,15.70
2018-11-28T15:37:59.237Z,17.87
2018-11-28T15:40:27.528Z,17.00
2018-11-28T15:42:55.826Z,15.40
2018-11-28T15:45:24.532Z,17.17
2018-11-28T15:47:53.260Z,14.87
2018-11-28T15:50:22.592Z,15.03
2018-11-28T15:52:50.864Z,17.17
2018-11-28T15:55:19.614Z,17.87
2018-11-28T15:57:47.996Z,18.00
2018-11-28T16:00:22.396Z,18.67
2018-11-28T16:02:49.890Z,17.33
2018-11-28T16:05:18.218Z,18.00
2018-11-28T16:07:46.519Z,19.97
2018-11-28T16:10:20.479Z,20.03
2018-11-28T16:12:49.500Z,18.00
2018-11-28T16:15:22.989Z,19.03
2018-11-28T16:17:51.355Z,17.57
2018-11-28T16:20:20.000Z,21.00
2018-11-28T16:22:48.359Z,18.70
2018-11-28T16:25:17.042Z,19.40
2018-11-28T16:27:45.316Z,20.33
2018-11-28T16:30:14.477Z,20.27
2018-11-28T16:32:44.090Z,20.87
2018-11-28T16:35:14.337Z,19.17
2018-11-28T16:37:42.628Z,20.80
2018-11-28T16:40:14.958Z,18.90
2018-11-28T16:42:43.364Z,20.53
2018-11-28T16:45:14.250Z,19.10
2018-11-28T16:47:43.036Z,20.00
2018-11-28T16:50:13.218Z,21.83
2018-11-28T16:52:42.275Z,22.40
2018-11-28T16:55:14.743Z,20.87
2018-11-28T16:57:48.353Z,19.10
2018-11-28T17:00:22.507Z,23.92
2018-11-28T17:02:51.135Z,20.87
2018-11-28T17:05:21.077Z,19.27
2018-11-28T17:07:49.608Z,22.77
2018-11-28T17:10:19.938Z,20.23
2018-11-28T17:12:49.451Z,19.90
2018-11-28T17:15:18.568Z,21.00
2018-11-28T17:17:46.983Z,19.40
2018-11-28T17:20:18.293Z,19.17
2018-11-28T17:22:47.281Z,19.80
2018-11-28T17:25:24.375Z,19.70
2018-11-28T17:27:52.790Z,20.73
2018-11-28T17:30:25.140Z,21.60
2018-11-28T17:32:53.569Z,18.40
2018-11-28T17:35:21.830Z,21.23
2018-11-28T17:37:50.623Z,21.90
2018-11-28T17:40:20.573Z,22.00
2018-11-28T17:42:50.119Z,19.70
2018-11-28T17:45:18.824Z,19.87
2018-11-28T17:47:47.155Z,19.10
2018-11-28T17:50:18.890Z,22.30
2018-11-28T17:53:08.729Z,20.10
2018-11-28T17:55:56.851Z,23.00
2018-11-28T17:58:25.209Z,22.53
2018-11-28T18:00:53.726Z,24.07
2018-11-28T18:03:22.693Z,21.30
2018-11-28T18:05:51.368Z,21.43
2018-11-28T18:08:19.675Z,21.47
2018-11-28T18:10:48.234Z,20.80
2018-11-28T18:13:18.139Z,20.00
2018-11-28T18:16:01.124Z,19.73
2018-11-28T18:18:31.043Z,22.10
2018-11-28T18:20:58.814Z,17.00
2018-11-28T18:23:27.476Z,19.97
2018-11-28T18:25:56.215Z,20.10
2018-11-28T18:28:24.715Z,19.47
2018-11-28T18:30:53.010Z,19.10
2018-11-28T18:33:21.424Z,19.30
2018-11-28T18:35:49.857Z,18.33
2018-11-28T18:38:18.284Z,17.10
2018-11-28T18:40:46.573Z,15.80
2018-11-28T18:43:14.996Z,19.80
2018-11-28T18:45:46.108Z,17.47
2018-11-28T18:48:14.414Z,17.90
2018-11-28T18:50:42.796Z,19.47
2018-11-28T18:53:11.156Z,17.47
2018-11-28T18:55:39.560Z,15.83
2018-11-28T18:58:09.691Z,16.00
2018-11-28T19:00:38.129Z,17.10
2018-11-28T19:03:07.572Z,16.40
2018-11-28T19:05:36.501Z,15.83
2018-11-28T19:08:04.975Z,17.80
2018-11-28T19:10:33.372Z,14.63
2018-11-28T19:13:01.670Z,14.53
2018-11-28T19:15:29.987Z,16.43
2018-11-28T19:17:59.047Z,15.80
2018-11-28T19:20:27.417Z,16.17
2018-11-28T19:22:56.945Z,14.40
2018-11-28T19:25:27.122Z,14.80
2018-11-28T19:27:55.433Z,12.80
2018-11-28T19:30:31.165Z,14.33
2018-11-28T19:33:00.558Z,15.47
2018-11-28T19:35:29.457Z,13.70
2018-11-28T19:37:58.076Z,13.27
2018-11-28T19:40:31.277Z,13.97
2018-11-28T19:42:59.604Z,16.00
2018-11-28T19:45:28.569Z,12.93
2018-11-28T19:47:56.878Z,13.63
2018-11-28T19:50:26.908Z,12.97
2018-11-28T19:52:55.423Z,12.33
2018-11-28T19:55:23.751Z,11.13
2018-11-28T19:57:52.136Z,13.30
2018-11-28T20:00:20.512Z,10.77
2018-11-28T20:02:49.110Z,12.67
2018-11-28T20:05:17.633Z,13.00
2018-11-28T20:07:47.235Z,12.83
2018-11-28T20:10:16.948Z,11.90
2018-11-28T20:12:45.253Z,13.40
2018-11-28T20:15:16.910Z,12.87
2018-11-28T20:17:45.421Z,12.77
2018-11-28T20:20:14.563Z,12.83
2018-11-28T20:22:43.321Z,14.03
2018-11-28T20:25:12.924Z,12.60
2018-11-28T20:27:41.829Z,11.47
2018-11-28T20:30:46.836Z,11.70
2018-11-28T20:33:16.498Z,12.70
2018-11-28T20:35:45.845Z,11.90
2018-11-28T20:38:19.518Z,11.60
2018-11-28T20:40:46.586Z,11.37
2018-11-28T20:43:14.981Z,12.13
2018-11-28T20:45:43.606Z,12.03
2018-11-28T20:48:11.903Z,11.00
2018-11-28T20:50:40.220Z,10.70
2018-11-28T20:53:10.002Z,11.57
2018-11-28T20:55:38.305Z,10.57
2018-11-28T20:58:07.225Z,11.07
2018-11-28T21:00:35.643Z,12.80
2018-11-28T21:03:03.970Z,11.60
2018-11-28T21:05:32.535Z,11.50
2018-11-28T21:08:03.352Z,10.37
2018-11-28T21:10:40.872Z,10.15
2018-11-28T21:13:12.947Z,12.30
2018-11-28T21:15:42.369Z,10.90
2018-11-28T21:18:13.853Z,10.57
2018-11-28T21:20:43.490Z,10.67
2018-11-28T21:23:13.949Z,11.40
2018-11-28T21:25:42.219Z,9.77
2018-11-28T21:28:10.501Z,9.13
2018-11-28T21:30:38.922Z,10.90
2018-11-28T21:33:08.544Z,9.43
2018-11-28T21:35:38.635Z,9.70
2018-11-28T21:38:07.741Z,10.07
2018-11-28T21:40:36.633Z,9.93
2018-11-28T21:43:22.844Z,8.00
2018-11-28T21:45:51.631Z,9.00
2018-11-28T21:48:20.028Z,8.80
2018-11-28T21:50:48.422Z,7.93
2018-11-28T21:53:21.526Z,9.70
2018-11-28T21:55:50.560Z,8.83
2018-11-28T21:58:21.007Z,10.73
2018-11-28T22:00:50.869Z,8.23
2018-11-28T22:03:19.677Z,7.73
2018-11-28T22:05:48.510Z,9.20
2018-11-28T22:08:17.400Z,8.83
2018-11-28T22:10:53.670Z,9.68
2018-11-28T22:13:22.142Z,8.60
2018-11-28T22:15:50.588Z,9.85
2018-11-28T22:18:19.289Z,8.70
2018-11-28T22:20:47.996Z,7.77
2018-11-28T22:23:16.282Z,8.10
2018-11-28T22:25:44.594Z,8.53
2018-11-28T22:28:12.916Z,9.53
2018-11-28T22:30:41.587Z,7.50
2018-11-28T22:33:09.882Z,8.87
2018-11-28T22:35:38.650Z,8.57
2018-11-28T22:38:06.945Z,7.60
2018-11-28T22:40:35.573Z,8.43
2018-11-28T22:43:03.929Z,8.87
2018-11-28T22:45:34.463Z,8.30
2018-11-28T22:48:03.132Z,7.70
2018-11-28T22:50:31.633Z,7.90
2018-11-28T22:52:59.926Z,7.97
2018-11-28T22:55:28.401Z,8.20
2018-11-28T22:57:56.884Z,6.73
2018-11-28T23:00:32.511Z,7.47
2018-11-28T23:03:04.047Z,8.43
2018-11-28T23:06:04.648Z,8.70
2018-11-28T23:08:33.170Z,7.60
2018-11-28T23:11:02.080Z,7.57
2018-11-28T23:13:30.460Z,7.53
2018-11-28T23:15:59.022Z,7.40
2018-11-28T23:18:27.320Z,8.97
2018-11-28T23:20:55.993Z,8.40
2018-11-28T23:23:24.663Z,7.10
2018-11-28T23:25:53.141Z,7.40
2018-11-28T23:28:21.395Z,7.57
2018-11-28T23:30:49.673Z,7.57
2018-11-28T23:33:17.961Z,6.83
2018-11-28T23:35:46.212Z,7.00
2018-11-28T23:38:14.495Z,7.40
2018-11-28T23:40:42.846Z,7.00
2018-11-28T23:43:11.142Z,6.87
2018-11-28T23:45:39.408Z,7.47
2018-11-28T23:48:07.665Z,6.70
2018-11-28T23:50:36.304Z,6.70
2018-11-28T23:53:04.564Z,6.13
2018-11-28T23:55:32.859Z,5.77
2018-11-28T23:58:01.496Z,6.20
